Details for Norwegian Air Shuttle at KFLL




Go Back


Latest METAR
Local Time

KFLL 240753Z 14011KT 10SM BKN016CB BKN023 BKN250 26/24 A3003 RMK AO2 SLP167 CB SW-W MOV NW TCU SE T02560239

24/05/2018, 03:56:55

Description
Results
Norwegian Air Shuttle Logo
Number of Pilots based at KFLL
0 Pilots Based here
Number of Norwegian Air Shuttle Flights Departed from KFLL
0 Flights Departed
Number of Norwegian Air Shuttle Flights Arrived at KFLL
0 Flights Arrived
Number of Norwegian Air Shuttle Schedules Departing from KFLL
7 Schedules
Number of Norwegian Air Shuttle Schedules Arriving at KFLL
7 Schedules
Number of Norwegian Air Shuttle Schedules Departing from KFLL availible today
0 Schedules Today
Number of Norwegian Air Shuttle Schedules Arriving at KFLL availible today
2 Schedules Today
Average Landing Rate at KFLL
-120 fpm
Norwegian Air Shuttle Average Landing Rate at KFLL
0 fpm
Total Fuel Purchased at KFLL by Norwegian Air Shuttle
0.00 kgs / 0.00 lbs

Pilots Based at KFLL


Pilot ID
Pilot Name
Pilot Rank
No. of Flights
No. of Flying Hours
There are no pilots assigned to this hub!   Will you be the first?
Content